sensor_id;sensor_type;location;lat;lon;timestamp;pressure;altitude;pressure_sealevel;temperature;humidity
56270;BME280;42176;43.240;27.880;2023-12-28T00:01:33;101359.53;;;6.66;100.00
56270;BME280;42176;43.240;27.880;2023-12-28T00:03:34;101361.66;;;6.30;100.00
56270;BME280;42176;43.240;27.880;2023-12-28T00:05:34;101356.41;;;6.33;100.00
56270;BME280;42176;43.240;27.880;2023-12-28T00:07:35;101358.19;;;6.34;100.00
56270;BME280;42176;43.240;27.880;2023-12-28T00:09:36;101369.47;;;6.89;100.00
56270;BME280;42176;43.240;27.880;2023-12-28T00:11:36;101373.06;;;6.32;100.00
56270;BME280;42176;43.240;27.880;2023-12-28T00:13:37;101375.38;;;5.61;100.00
56270;BME280;42176;43.240;27.880;2023-12-28T00:15:37;101374.75;;;5.75;100.00
56270;BME280;42176;43.240;27.880;2023-12-28T00:17:38;101379.38;;;5.88;100.00
56270;BME280;42176;43.240;27.880;2023-12-28T00:19:38;101387.31;;;6.45;100.00
56270;BME280;42176;43.240;27.880;2023-12-28T00:21:39;101375.88;;;6.42;100.00
56270;BME280;42176;43.240;27.880;2023-12-28T00:23:40;101385.72;;;5.52;100.00
56270;BME280;42176;43.240;27.880;2023-12-28T00:25:41;101386.44;;;5.42;100.00
56270;BME280;42176;43.240;27.880;2023-12-28T00:27:41;101384.78;;;5.48;100.00
56270;BME280;42176;43.240;27.880;2023-12-28T00:29:42;101387.63;;;5.59;100.00
56270;BME280;42176;43.240;27.880;2023-12-28T00:31:43;101392.16;;;6.17;100.00
56270;BME280;42176;43.240;27.880;2023-12-28T00:33:44;101384.63;;;5.88;100.00
56270;BME280;42176;43.240;27.880;2023-12-28T00:35:44;101398.34;;;5.24;100.00
56270;BME280;42176;43.240;27.880;2023-12-28T00:37:45;101399.34;;;5.29;100.00
56270;BME280;42176;43.240;27.880;2023-12-28T00:39:45;101397.88;;;5.44;100.00
56270;BME280;42176;43.240;27.880;2023-12-28T00:41:47;101394.66;;;5.60;100.00
56270;BME280;42176;43.240;27.880;2023-12-28T00:43:47;101397.50;;;6.20;100.00
56270;BME280;42176;43.240;27.880;2023-12-28T00:45:48;101386.91;;;6.17;100.00
56270;BME280;42176;43.240;27.880;2023-12-28T00:47:49;101385.56;;;5.43;100.00
56270;BME280;42176;43.240;27.880;2023-12-28T00:49:50;101389.63;;;5.27;100.00
56270;BME280;42176;43.240;27.880;2023-12-28T00:51:50;101389.78;;;5.34;100.00
56270;BME280;42176;43.240;27.880;2023-12-28T00:53:51;101386.81;;;5.63;100.00
56270;BME280;42176;43.240;27.880;2023-12-28T00:55:52;101379.03;;;5.68;100.00
56270;BME280;42176;43.240;27.880;2023-12-28T00:57:52;101389.69;;;4.87;100.00
56270;BME280;42176;43.240;27.880;2023-12-28T00:59:53;101389.28;;;4.68;100.00
56270;BME280;42176;43.240;27.880;2023-12-28T01:01:54;101390.34;;;4.77;100.00
56270;BME280;42176;43.240;27.880;2023-12-28T01:03:54;101396.00;;;4.95;100.00
56270;BME280;42176;43.240;27.880;2023-12-28T01:05:55;101394.91;;;5.73;100.00
56270;BME280;42176;43.240;27.880;2023-12-28T01:07:55;101376.44;;;4.82;100.00
56270;BME280;42176;43.240;27.880;2023-12-28T01:09:56;101397.97;;;4.64;100.00
56270;BME280;42176;43.240;27.880;2023-12-28T01:11:56;101395.69;;;4.80;100.00
56270;BME280;42176;43.240;27.880;2023-12-28T01:13:57;101393.31;;;4.92;100.00
56270;BME280;42176;43.240;27.880;2023-12-28T01:15:59;101392.19;;;5.70;100.00
56270;BME280;42176;43.240;27.880;2023-12-28T01:17:59;101385.16;;;5.69;100.00
56270;BME280;42176;43.240;27.880;2023-12-28T01:20:00;101378.84;;;5.13;100.00
56270;BME280;42176;43.240;27.880;2023-12-28T01:22:00;101381.50;;;5.16;100.00
56270;BME280;42176;43.240;27.880;2023-12-28T01:24:01;101367.88;;;5.36;100.00
56270;BME280;42176;43.240;27.880;2023-12-28T01:26:02;101377.13;;;5.62;100.00
56270;BME280;42176;43.240;27.880;2023-12-28T01:28:03;101364.84;;;6.11;100.00
56270;BME280;42176;43.240;27.880;2023-12-28T01:30:05;101373.78;;;5.24;100.00
56270;BME280;42176;43.240;27.880;2023-12-28T01:32:06;101362.81;;;5.00;100.00
56270;BME280;42176;43.240;27.880;2023-12-28T01:34:06;101355.75;;;4.96;100.00
56270;BME280;42176;43.240;27.880;2023-12-28T01:36:19;101366.44;;;5.07;100.00
56270;BME280;42176;43.240;27.880;2023-12-28T01:38:20;101365.09;;;5.26;100.00
56270;BME280;42176;43.240;27.880;2023-12-28T01:40:20;101354.56;;;5.74;100.00
56270;BME280;42176;43.240;27.880;2023-12-28T01:42:21;101363.34;;;4.84;100.00
56270;BME280;42176;43.240;27.880;2023-12-28T01:44:21;101365.47;;;4.61;100.00
56270;BME280;42176;43.240;27.880;2023-12-28T01:46:23;101362.22;;;4.71;100.00
56270;BME280;42176;43.240;27.880;2023-12-28T01:48:24;101378.06;;;4.76;100.00
56270;BME280;42176;43.240;27.880;2023-12-28T01:50:25;101377.31;;;4.83;100.00
56270;BME280;42176;43.240;27.880;2023-12-28T01:52:27;101371.72;;;5.53;100.00
56270;BME280;42176;43.240;27.880;2023-12-28T01:54:29;101373.50;;;5.54;100.00
56270;BME280;42176;43.240;27.880;2023-12-28T01:56:30;101375.09;;;5.01;100.00
56270;BME280;42176;43.240;27.880;2023-12-28T01:58:33;101372.06;;;4.83;100.00
56270;BME280;42176;43.240;27.880;2023-12-28T02:00:35;101357.31;;;4.88;100.00
56270;BME280;42176;43.240;27.880;2023-12-28T02:02:38;101376.25;;;5.16;100.00
56270;BME280;42176;43.240;27.880;2023-12-28T02:04:39;101368.53;;;5.70;100.00
56270;BME280;42176;43.240;27.880;2023-12-28T02:06:40;101366.91;;;5.78;100.00
56270;BME280;42176;43.240;27.880;2023-12-28T02:08:41;101357.78;;;5.11;100.00
56270;BME280;42176;43.240;27.880;2023-12-28T02:10:42;101356.75;;;5.05;100.00
56270;BME280;42176;43.240;27.880;2023-12-28T02:12:42;101360.78;;;5.31;100.00
56270;BME280;42176;43.240;27.880;2023-12-28T02:14:43;101367.41;;;5.57;100.00
56270;BME280;42176;43.240;27.880;2023-12-28T02:17:10;101372.94;;;6.21;100.00
56270;BME280;42176;43.240;27.880;2023-12-28T02:19:52;101380.31;;;5.43;100.00
56270;BME280;42176;43.240;27.880;2023-12-28T02:21:54;101377.41;;;5.29;100.00
56270;BME280;42176;43.240;27.880;2023-12-28T02:23:55;101384.59;;;5.38;100.00
56270;BME280;42176;43.240;27.880;2023-12-28T02:25:55;101375.91;;;5.92;100.00
56270;BME280;42176;43.240;27.880;2023-12-28T02:27:56;101384.88;;;5.53;100.00
56270;BME280;42176;43.240;27.880;2023-12-28T02:29:57;101391.09;;;5.14;100.00
56270;BME280;42176;43.240;27.880;2023-12-28T02:32:00;101388.56;;;5.17;100.00
56270;BME280;42176;43.240;27.880;2023-12-28T02:34:12;101397.72;;;5.38;100.00
56270;BME280;42176;43.240;27.880;2023-12-28T02:36:18;101396.19;;;5.49;100.00
56270;BME280;42176;43.240;27.880;2023-12-28T02:38:20;101395.72;;;6.19;100.00
56270;BME280;42176;43.240;27.880;2023-12-28T02:40:23;101400.78;;;6.07;100.00
56270;BME280;42176;43.240;27.880;2023-12-28T02:42:25;101399.63;;;5.45;100.00
56270;BME280;42176;43.240;27.880;2023-12-28T02:44:26;101388.75;;;5.26;100.00
56270;BME280;42176;43.240;27.880;2023-12-28T02:46:26;101393.34;;;5.38;100.00
56270;BME280;42176;43.240;27.880;2023-12-28T02:48:27;101393.69;;;5.55;100.00
56270;BME280;42176;43.240;27.880;2023-12-28T02:50:27;101401.06;;;5.75;100.00
56270;BME280;42176;43.240;27.880;2023-12-28T02:52:30;101381.88;;;4.92;100.00
56270;BME280;42176;43.240;27.880;2023-12-28T02:54:30;101395.88;;;4.89;100.00
56270;BME280;42176;43.240;27.880;2023-12-28T02:56:31;101384.81;;;5.06;100.00
56270;BME280;42176;43.240;27.880;2023-12-28T02:58:33;101394.81;;;5.24;100.00
56270;BME280;42176;43.240;27.880;2023-12-28T03:00:34;101384.31;;;5.70;100.00
56270;BME280;42176;43.240;27.880;2023-12-28T03:02:37;101383.03;;;5.05;100.00
56270;BME280;42176;43.240;27.880;2023-12-28T03:04:38;101387.78;;;4.80;100.00
56270;BME280;42176;43.240;27.880;2023-12-28T03:06:38;101400.34;;;4.93;100.00
56270;BME280;42176;43.240;27.880;2023-12-28T03:08:41;101401.44;;;5.05;100.00
56270;BME280;42176;43.240;27.880;2023-12-28T03:10:42;101394.91;;;5.73;100.00
56270;BME280;42176;43.240;27.880;2023-12-28T03:12:42;101390.31;;;5.16;100.00
56270;BME280;42176;43.240;27.880;2023-12-28T03:14:43;101388.66;;;4.80;100.00
56270;BME280;42176;43.240;27.880;2023-12-28T03:16:45;101403.56;;;4.80;100.00
56270;BME280;42176;43.240;27.880;2023-12-28T03:18:45;101397.88;;;5.01;100.00
56270;BME280;42176;43.240;27.880;2023-12-28T03:20:46;101395.38;;;5.52;100.00
56270;BME280;42176;43.240;27.880;2023-12-28T03:22:46;101388.13;;;5.87;100.00
56270;BME280;42176;43.240;27.880;2023-12-28T03:24:47;101393.47;;;5.00;100.00
56270;BME280;42176;43.240;27.880;2023-12-28T03:26:47;101394.94;;;4.87;100.00
56270;BME280;42176;43.240;27.880;2023-12-28T03:28:48;101386.41;;;4.97;100.00
56270;BME280;42176;43.240;27.880;2023-12-28T03:30:48;101388.22;;;5.01;100.00
56270;BME280;42176;43.240;27.880;2023-12-28T03:32:49;101389.13;;;5.45;100.00
56270;BME280;42176;43.240;27.880;2023-12-28T03:34:49;101385.44;;;4.94;100.00
56270;BME280;42176;43.240;27.880;2023-12-28T03:36:50;101392.19;;;4.41;100.00
56270;BME280;42176;43.240;27.880;2023-12-28T03:38:51;101380.19;;;4.54;100.00
56270;BME280;42176;43.240;27.880;2023-12-28T03:40:51;101380.63;;;4.72;100.00
56270;BME280;42176;43.240;27.880;2023-12-28T03:42:52;101390.47;;;5.24;100.00
56270;BME280;42176;43.240;27.880;2023-12-28T03:44:53;101384.38;;;5.73;100.00
56270;BME280;42176;43.240;27.880;2023-12-28T03:46:53;101391.69;;;4.97;100.00
56270;BME280;42176;43.240;27.880;2023-12-28T03:48:54;101395.22;;;4.23;100.00
56270;BME280;42176;43.240;27.880;2023-12-28T03:50:54;101386.88;;;4.39;100.00
56270;BME280;42176;43.240;27.880;2023-12-28T03:52:55;101387.44;;;4.64;100.00
56270;BME280;42176;43.240;27.880;2023-12-28T03:54:56;101393.53;;;5.47;100.00
56270;BME280;42176;43.240;27.880;2023-12-28T03:56:56;101382.88;;;5.40;100.00
56270;BME280;42176;43.240;27.880;2023-12-28T03:58:57;101383.00;;;4.62;100.00
56270;BME280;42176;43.240;27.880;2023-12-28T04:00:58;101382.34;;;4.32;100.00
56270;BME280;42176;43.240;27.880;2023-12-28T04:02:59;101381.69;;;4.42;100.00
56270;BME280;42176;43.240;27.880;2023-12-28T04:05:00;101376.72;;;4.55;100.00
56270;BME280;42176;43.240;27.880;2023-12-28T04:07:00;101381.38;;;4.68;100.00
56270;BME280;42176;43.240;27.880;2023-12-28T04:09:01;101372.84;;;5.20;100.00
56270;BME280;42176;43.240;27.880;2023-12-28T04:11:02;101371.97;;;4.38;100.00
56270;BME280;42176;43.240;27.880;2023-12-28T04:13:02;101380.38;;;3.88;100.00
56270;BME280;42176;43.240;27.880;2023-12-28T04:15:03;101373.56;;;3.95;100.00
56270;BME280;42176;43.240;27.880;2023-12-28T04:17:04;101364.16;;;4.03;100.00
56270;BME280;42176;43.240;27.880;2023-12-28T04:19:04;101379.28;;;4.15;100.00
56270;BME280;42176;43.240;27.880;2023-12-28T04:21:08;101379.47;;;4.23;100.00
56270;BME280;42176;43.240;27.880;2023-12-28T04:23:09;101384.66;;;4.56;100.00
56270;BME280;42176;43.240;27.880;2023-12-28T04:25:10;101382.97;;;4.60;100.00
56270;BME280;42176;43.240;27.880;2023-12-28T04:27:11;101384.53;;;3.46;100.00
56270;BME280;42176;43.240;27.880;2023-12-28T04:29:12;101384.22;;;2.73;100.00
56270;BME280;42176;43.240;27.880;2023-12-28T04:31:13;101384.66;;;2.88;100.00
56270;BME280;42176;43.240;27.880;2023-12-28T04:33:16;101374.53;;;3.01;100.00
56270;BME280;42176;43.240;27.880;2023-12-28T04:35:17;101374.13;;;3.17;100.00
56270;BME280;42176;43.240;27.880;2023-12-28T04:37:18;101363.31;;;4.04;100.00
56270;BME280;42176;43.240;27.880;2023-12-28T04:39:18;101378.84;;;3.29;100.00
56270;BME280;42176;43.240;27.880;2023-12-28T04:41:19;101376.16;;;2.38;100.00
56270;BME280;42176;43.240;27.880;2023-12-28T04:43:19;101376.94;;;2.08;100.00
56270;BME280;42176;43.240;27.880;2023-12-28T04:45:20;101384.66;;;2.31;100.00
56270;BME280;42176;43.240;27.880;2023-12-28T04:47:22;101377.28;;;2.46;100.00
56270;BME280;42176;43.240;27.880;2023-12-28T04:49:23;101380.31;;;3.19;100.00
56270;BME280;42176;43.240;27.880;2023-12-28T04:51:23;101384.00;;;3.58;100.00
56270;BME280;42176;43.240;27.880;2023-12-28T04:53:24;101376.16;;;2.96;100.00
56270;BME280;42176;43.240;27.880;2023-12-28T04:55:24;101384.66;;;2.31;100.00
56270;BME280;42176;43.240;27.880;2023-12-28T04:57:25;101377.53;;;2.54;100.00
56270;BME280;42176;43.240;27.880;2023-12-28T04:59:28;101399.06;;;2.72;100.00
56270;BME280;42176;43.240;27.880;2023-12-28T05:01:28;101381.56;;;3.02;100.00
56270;BME280;42176;43.240;27.880;2023-12-28T05:03:31;101383.91;;;3.89;100.00
56270;BME280;42176;43.240;27.880;2023-12-28T05:05:32;101381.41;;;3.28;100.00
56270;BME280;42176;43.240;27.880;2023-12-28T05:07:33;101373.84;;;2.76;100.00
56270;BME280;42176;43.240;27.880;2023-12-28T05:09:33;101368.47;;;2.71;100.00
56270;BME280;42176;43.240;27.880;2023-12-28T05:11:34;101354.56;;;2.74;100.00
56270;BME280;42176;43.240;27.880;2023-12-28T05:13:34;101388.09;;;3.16;100.00
56270;BME280;42176;43.240;27.880;2023-12-28T05:15:35;101388.59;;;3.35;100.00
56270;BME280;42176;43.240;27.880;2023-12-28T05:17:36;101386.63;;;3.60;100.00
56270;BME280;42176;43.240;27.880;2023-12-28T05:19:36;101381.03;;;3.79;100.00
56270;BME280;42176;43.240;27.880;2023-12-28T05:21:37;101366.44;;;3.89;100.00
56270;BME280;42176;43.240;27.880;2023-12-28T05:23:38;101376.56;;;4.10;100.00
56270;BME280;42176;43.240;27.880;2023-12-28T05:25:38;101357.50;;;4.18;100.00
56270;BME280;42176;43.240;27.880;2023-12-28T05:27:39;101376.16;;;3.28;100.00
56270;BME280;42176;43.240;27.880;2023-12-28T05:29:40;101376.00;;;2.33;100.00
56270;BME280;42176;43.240;27.880;2023-12-28T05:31:40;101377.34;;;2.20;100.00
56270;BME280;42176;43.240;27.880;2023-12-28T05:33:41;101386.00;;;2.45;100.00
56270;BME280;42176;43.240;27.880;2023-12-28T05:35:41;101390.09;;;2.66;100.00
56270;BME280;42176;43.240;27.880;2023-12-28T05:37:42;101397.19;;;2.99;100.00
56270;BME280;42176;43.240;27.880;2023-12-28T05:39:43;101394.06;;;3.76;100.00
56270;BME280;42176;43.240;27.880;2023-12-28T05:41:43;101396.28;;;3.29;100.00
56270;BME280;42176;43.240;27.880;2023-12-28T05:43:45;101399.19;;;2.48;100.00
56270;BME280;42176;43.240;27.880;2023-12-28T05:45:45;101400.31;;;2.58;100.00
56270;BME280;42176;43.240;27.880;2023-12-28T05:47:46;101406.94;;;2.74;100.00
56270;BME280;42176;43.240;27.880;2023-12-28T05:49:46;101406.31;;;3.76;100.00
56270;BME280;42176;43.240;27.880;2023-12-28T05:51:47;101397.53;;;3.75;100.00
56270;BME280;42176;43.240;27.880;2023-12-28T05:53:48;101393.09;;;3.39;100.00
56270;BME280;42176;43.240;27.880;2023-12-28T05:55:48;101403.69;;;3.76;100.00
56270;BME280;42176;43.240;27.880;2023-12-28T05:57:49;101389.03;;;4.19;100.00
56270;BME280;42176;43.240;27.880;2023-12-28T05:59:49;101391.34;;;4.82;100.00
56270;BME280;42176;43.240;27.880;2023-12-28T06:01:50;101397.91;;;5.47;100.00
56270;BME280;42176;43.240;27.880;2023-12-28T06:03:50;101399.16;;;4.79;100.00
56270;BME280;42176;43.240;27.880;2023-12-28T06:05:52;101390.53;;;4.09;100.00
56270;BME280;42176;43.240;27.880;2023-12-28T06:07:53;101377.63;;;4.95;100.00
56270;BME280;42176;43.240;27.880;2023-12-28T06:09:54;101395.59;;;6.13;100.00
56270;BME280;42176;43.240;27.880;2023-12-28T06:11:54;101380.19;;;5.86;100.00
56270;BME280;42176;43.240;27.880;2023-12-28T06:13:55;101402.91;;;5.34;100.00
56270;BME280;42176;43.240;27.880;2023-12-28T06:15:55;101395.66;;;6.16;100.00
56270;BME280;42176;43.240;27.880;2023-12-28T06:17:56;101393.03;;;6.75;100.00
56270;BME280;42176;43.240;27.880;2023-12-28T06:19:57;101393.84;;;6.69;100.00
56270;BME280;42176;43.240;27.880;2023-12-28T06:21:58;101387.41;;;5.98;100.00
56270;BME280;42176;43.240;27.880;2023-12-28T06:23:58;101390.91;;;5.03;100.00
56270;BME280;42176;43.240;27.880;2023-12-28T06:26:04;101398.72;;;5.00;100.00
56270;BME280;42176;43.240;27.880;2023-12-28T06:28:05;101386.91;;;5.22;100.00
56270;BME280;42176;43.240;27.880;2023-12-28T06:30:06;101388.41;;;6.03;100.00
56270;BME280;42176;43.240;27.880;2023-12-28T06:32:07;101397.94;;;7.14;100.00
56270;BME280;42176;43.240;27.880;2023-12-28T06:34:07;101395.44;;;6.59;100.00
56270;BME280;42176;43.240;27.880;2023-12-28T06:36:08;101398.59;;;7.75;100.00
56270;BME280;42176;43.240;27.880;2023-12-28T06:38:09;101394.19;;;8.91;100.00
56270;BME280;42176;43.240;27.880;2023-12-28T06:40:10;101390.66;;;8.86;100.00
56270;BME280;42176;43.240;27.880;2023-12-28T06:42:10;101388.06;;;7.80;100.00
56270;BME280;42176;43.240;27.880;2023-12-28T06:44:11;101389.72;;;7.68;100.00
56270;BME280;42176;43.240;27.880;2023-12-28T06:46:14;101382.78;;;8.94;100.00
56270;BME280;42176;43.240;27.880;2023-12-28T06:48:14;101390.09;;;10.27;100.00
56270;BME280;42176;43.240;27.880;2023-12-28T06:50:15;101390.72;;;11.30;90.57
56270;BME280;42176;43.240;27.880;2023-12-28T06:52:16;101377.75;;;12.20;79.91
56270;BME280;42176;43.240;27.880;2023-12-28T06:54:16;101370.41;;;13.23;71.22
56270;BME280;42176;43.240;27.880;2023-12-28T06:56:17;101372.72;;;14.09;62.23
56270;BME280;42176;43.240;27.880;2023-12-28T06:58:18;101371.13;;;14.96;58.76
56270;BME280;42176;43.240;27.880;2023-12-28T07:00:18;101379.81;;;15.48;54.59
56270;BME280;42176;43.240;27.880;2023-12-28T07:02:19;101382.88;;;13.20;60.03
56270;BME280;42176;43.240;27.880;2023-12-28T07:04:20;101385.59;;;10.86;77.74
56270;BME280;42176;43.240;27.880;2023-12-28T07:06:21;101374.22;;;10.39;85.58
56270;BME280;42176;43.240;27.880;2023-12-28T07:08:22;101377.75;;;12.20;76.83
56270;BME280;42176;43.240;27.880;2023-12-28T07:10:22;101370.19;;;13.42;71.09
56270;BME280;42176;43.240;27.880;2023-12-28T07:12:23;101361.59;;;14.34;61.70
56270;BME280;42176;43.240;27.880;2023-12-28T07:14:24;101371.25;;;13.90;64.20
56270;BME280;42176;43.240;27.880;2023-12-28T07:16:24;101385.28;;;11.57;76.89
56270;BME280;42176;43.240;27.880;2023-12-28T07:18:26;101366.81;;;11.33;90.44
56270;BME280;42176;43.240;27.880;2023-12-28T07:20:27;101373.34;;;13.02;85.30
56270;BME280;42176;43.240;27.880;2023-12-28T07:22:27;101367.50;;;12.72;77.77
56270;BME280;42176;43.240;27.880;2023-12-28T07:24:28;101379.28;;;11.17;86.65
56270;BME280;42176;43.240;27.880;2023-12-28T07:26:29;101367.03;;;12.28;87.28
56270;BME280;42176;43.240;27.880;2023-12-28T07:28:29;101363.53;;;13.73;77.74
56270;BME280;42176;43.240;27.880;2023-12-28T07:30:30;101368.53;;;14.44;66.72
56270;BME280;42176;43.240;27.880;2023-12-28T07:32:31;101373.31;;;12.22;77.51
56270;BME280;42176;43.240;27.880;2023-12-28T07:34:31;101374.16;;;12.27;86.19
56270;BME280;42176;43.240;27.880;2023-12-28T07:36:32;101374.16;;;13.74;73.38
56270;BME280;42176;43.240;27.880;2023-12-28T07:38:32;101385.47;;;14.92;68.63
56270;BME280;42176;43.240;27.880;2023-12-28T07:40:33;101379.94;;;12.67;70.70
56270;BME280;42176;43.240;27.880;2023-12-28T07:42:33;101387.56;;;12.12;82.43
56270;BME280;42176;43.240;27.880;2023-12-28T07:44:34;101374.16;;;13.74;75.17
56270;BME280;42176;43.240;27.880;2023-12-28T07:46:35;101377.59;;;14.34;63.74
56270;BME280;42176;43.240;27.880;2023-12-28T07:48:36;101375.06;;;12.23;67.84
56270;BME280;42176;43.240;27.880;2023-12-28T07:50:37;101386.88;;;12.83;72.54
56270;BME280;42176;43.240;27.880;2023-12-28T07:52:37;101399.16;;;14.22;66.20
56270;BME280;42176;43.240;27.880;2023-12-28T07:54:38;101393.72;;;14.78;58.22
56270;BME280;42176;43.240;27.880;2023-12-28T07:56:38;101392.53;;;12.49;66.58
56270;BME280;42176;43.240;27.880;2023-12-28T07:58:39;101397.28;;;12.17;73.43
56270;BME280;42176;43.240;27.880;2023-12-28T08:00:40;101374.28;;;13.66;66.65
56270;BME280;42176;43.240;27.880;2023-12-28T08:02:40;101395.09;;;15.01;61.97
56270;BME280;42176;43.240;27.880;2023-12-28T08:04:41;101397.38;;;13.66;59.13
56270;BME280;42176;43.240;27.880;2023-12-28T08:06:41;101412.59;;;11.73;70.92
56270;BME280;42176;43.240;27.880;2023-12-28T08:08:42;101407.69;;;13.23;70.70
56270;BME280;42176;43.240;27.880;2023-12-28T08:10:42;101403.91;;;14.56;61.90
56270;BME280;42176;43.240;27.880;2023-12-28T08:12:43;101405.63;;;13.47;61.57
56270;BME280;42176;43.240;27.880;2023-12-28T08:14:43;101409.97;;;11.70;72.96
56270;BME280;42176;43.240;27.880;2023-12-28T08:16:44;101397.78;;;13.33;72.44
56270;BME280;42176;43.240;27.880;2023-12-28T08:18:45;101388.72;;;14.59;65.61
56270;BME280;42176;43.240;27.880;2023-12-28T08:20:45;101395.88;;;12.70;66.33
56270;BME280;42176;43.240;27.880;2023-12-28T08:22:46;101390.25;;;12.12;73.51
56270;BME280;42176;43.240;27.880;2023-12-28T08:24:47;101392.94;;;13.65;68.68
56270;BME280;42176;43.240;27.880;2023-12-28T08:26:48;101383.59;;;14.47;63.06
56270;BME280;42176;43.240;27.880;2023-12-28T08:28:48;101379.88;;;15.04;58.17
56270;BME280;42176;43.240;27.880;2023-12-28T08:30:49;101389.03;;;15.73;56.02
56270;BME280;42176;43.240;27.880;2023-12-28T08:32:49;101384.13;;;15.95;52.73
56270;BME280;42176;43.240;27.880;2023-12-28T08:34:50;101381.25;;;16.03;52.13
56270;BME280;42176;43.240;27.880;2023-12-28T08:36:51;101387.16;;;15.78;52.30
56270;BME280;42176;43.240;27.880;2023-12-28T08:38:52;101384.00;;;15.19;53.88
56270;BME280;42176;43.240;27.880;2023-12-28T08:40:53;101384.50;;;14.48;57.51
56270;BME280;42176;43.240;27.880;2023-12-28T08:42:53;101385.09;;;14.12;59.93
56270;BME280;42176;43.240;27.880;2023-12-28T08:44:54;101337.09;;;13.60;62.31
56270;BME280;42176;43.240;27.880;2023-12-28T08:46:54;101377.16;;;13.52;64.44
56270;BME280;42176;43.240;27.880;2023-12-28T08:48:55;101374.19;;;13.07;66.13
56270;BME280;42176;43.240;27.880;2023-12-28T08:50:55;101372.69;;;12.81;68.56
56270;BME280;42176;43.240;27.880;2023-12-28T08:52:56;101358.78;;;12.57;71.52
56270;BME280;42176;43.240;27.880;2023-12-28T08:54:57;101359.81;;;12.44;73.56
56270;BME280;42176;43.240;27.880;2023-12-28T08:56:57;101346.63;;;12.31;73.35
56270;BME280;42176;43.240;27.880;2023-12-28T08:58:59;101340.59;;;12.12;75.19
56270;BME280;42176;43.240;27.880;2023-12-28T09:00:59;101341.44;;;12.16;77.34
56270;BME280;42176;43.240;27.880;2023-12-28T09:03:00;101341.44;;;12.16;78.99
56270;BME280;42176;43.240;27.880;2023-12-28T09:05:00;101339.72;;;12.12;80.18
56270;BME280;42176;43.240;27.880;2023-12-28T09:07:01;101343.31;;;12.08;81.86
56270;BME280;42176;43.240;27.880;2023-12-28T09:09:02;101334.47;;;12.02;84.60
56270;BME280;42176;43.240;27.880;2023-12-28T09:11:04;101330.94;;;12.00;83.12
56270;BME280;42176;43.240;27.880;2023-12-28T09:13:05;101327.44;;;11.95;81.45
56270;BME280;42176;43.240;27.880;2023-12-28T09:15:06;101324.91;;;11.78;80.01
56270;BME280;42176;43.240;27.880;2023-12-28T09:17:07;101326.78;;;11.67;81.42
56270;BME280;42176;43.240;27.880;2023-12-28T09:19:08;101315.28;;;11.66;83.34
56270;BME280;42176;43.240;27.880;2023-12-28T09:21:09;101319.72;;;11.67;84.06
56270;BME280;42176;43.240;27.880;2023-12-28T09:23:10;101311.75;;;11.64;84.03
56270;BME280;42176;43.240;27.880;2023-12-28T09:25:11;101303.78;;;11.63;85.75
56270;BME280;42176;43.240;27.880;2023-12-28T09:27:11;101301.16;;;11.58;83.49
56270;BME280;42176;43.240;27.880;2023-12-28T09:29:12;101298.59;;;11.46;86.17
56270;BME280;42176;43.240;27.880;2023-12-28T09:31:13;101294.19;;;11.45;87.21
56270;BME280;42176;43.240;27.880;2023-12-28T09:33:13;101293.31;;;11.42;86.81
56270;BME280;42176;43.240;27.880;2023-12-28T09:35:15;101288.91;;;11.40;86.93
56270;BME280;42176;43.240;27.880;2023-12-28T09:37:16;101288.91;;;11.38;86.79
56270;BME280;42176;43.240;27.880;2023-12-28T09:39:16;101280.13;;;11.33;86.46
56270;BME280;42176;43.240;27.880;2023-12-28T09:41:18;101272.97;;;11.41;89.57
56270;BME280;42176;43.240;27.880;2023-12-28T09:43:23;101275.56;;;11.49;88.28
56270;BME280;42176;43.240;27.880;2023-12-28T09:45:27;101259.53;;;11.60;87.67
56270;BME280;42176;43.240;27.880;2023-12-28T09:47:28;101258.66;;;11.61;87.18
56270;BME280;42176;43.240;27.880;2023-12-28T09:49:30;101261.66;;;11.13;88.92
56270;BME280;42176;43.240;27.880;2023-12-28T09:51:32;101257.66;;;9.93;97.12
56270;BME280;42176;43.240;27.880;2023-12-28T09:53:33;101255.88;;;9.20;100.00
56270;BME280;42176;43.240;27.880;2023-12-28T09:55:33;101248.84;;;9.41;100.00
56270;BME280;42176;43.240;27.880;2023-12-28T09:57:34;101238.25;;;9.69;100.00
56270;BME280;42176;43.240;27.880;2023-12-28T09:59:36;101255.84;;;10.16;100.00
56270;BME280;42176;43.240;27.880;2023-12-28T10:01:38;101244.41;;;10.05;100.00
56270;BME280;42176;43.240;27.880;2023-12-28T10:03:39;101249.72;;;9.44;100.00
56270;BME280;42176;43.240;27.880;2023-12-28T10:05:41;101240.00;;;9.67;100.00
56270;BME280;42176;43.240;27.880;2023-12-28T10:07:44;101240.00;;;9.95;100.00
56270;BME280;42176;43.240;27.880;2023-12-28T10:09:44;101238.19;;;10.15;100.00
56270;BME280;42176;43.240;27.880;2023-12-28T10:11:45;101236.25;;;10.67;100.00
56270;BME280;42176;43.240;27.880;2023-12-28T10:13:46;101228.44;;;10.25;100.00
56270;BME280;42176;43.240;27.880;2023-12-28T10:15:47;101231.19;;;9.60;100.00
56270;BME280;42176;43.240;27.880;2023-12-28T10:17:47;101231.19;;;9.89;100.00
56270;BME280;42176;43.240;27.880;2023-12-28T10:19:48;101234.66;;;10.18;100.00
56270;BME280;42176;43.240;27.880;2023-12-28T10:21:48;101230.16;;;10.46;100.00
56270;BME280;42176;43.240;27.880;2023-12-28T10:23:49;101227.41;;;10.68;100.00
56270;BME280;42176;43.240;27.880;2023-12-28T10:25:50;101215.75;;;10.97;100.00